Time;durP1;ratioP1;P1;durP2;ratioP2;P2;SDS_P1;SDS_P2;PMS_P1;PMS_P2;Temp;Humidity;BMP_temperature;BMP_pressure;BME280_temperature;BME280_humidity;BME280_pressure;Samples;Min_cycle;Max_cycle;Signal;HPM_P1;HPM_P2
2021/11/22 00:00:53;;;;;;;;;;;;;;;2.14;56.67;95415.44;5019715;28;19921;-60
2021/11/22 00:03:18;;;;;;;;;;;;;;;2.69;58.19;95421.34;5019917;28;19963;-61
2021/11/22 00:05:43;;;;;;;;;;;;;;;2.87;56.37;95414.50;5019501;28;19975;-59
2021/11/22 00:08:09;;;;;;;;;;;;;;;2.86;59.06;95422.50;5018412;28;19929;-61
2021/11/22 00:10:34;;;;;;;;;;;;;;;3.07;59.93;95419.78;5019935;28;19921;-59
2021/11/22 00:12:59;;;;;;;;;;;;;;;1.83;58.63;95424.09;5019323;28;20301;-58
2021/11/22 00:15:25;;;;;;;;;;;;;;;2.41;56.46;95414.03;5020179;28;19960;-62
2021/11/22 00:17:50;;;;;;;;;;;;;;;2.77;62.57;95422.34;5019303;28;19921;-60
2021/11/22 00:20:16;;;;;;;;;;;;;;;3.10;54.87;95418.69;5009430;28;20670;-60
2021/11/22 00:22:43;;;;;;;;;;;;;;;2.94;58.51;95419.19;5017531;28;19921;-60
2021/11/22 00:25:09;;;;;;;;;;;;;;;1.29;57.19;95429.31;5001913;28;19921;-60
2021/11/22 00:27:35;;;;;;;;;;;;;;;2.39;55.32;95422.06;5014331;28;20452;-59
2021/11/22 00:30:00;;;;;;;;;;;;;;;2.96;57.49;95422.53;5017058;28;20469;-59
2021/11/22 00:32:25;;;;;;;;;;;;;;;3.16;54.61;95429.50;5027132;28;20602;-59
2021/11/22 00:34:55;;;;;;;;;;;;;;;3.22;54.23;95420.22;5019863;28;19925;-59
2021/11/22 00:37:23;;;;;;;;;;;;;;;3.06;55.82;95415.47;5019165;28;19921;-61
2021/11/22 00:39:49;;;;;;;;;;;;;;;3.08;53.11;95421.44;5019966;28;19948;-59
2021/11/22 00:42:14;;;;;;;;;;;;;;;3.23;54.13;95426.31;5018849;28;20366;-60
2021/11/22 00:44:40;;;;;;;;;;;;;;;3.29;53.28;95415.25;5019001;28;19925;-59
2021/11/22 00:47:06;;;;;;;;;;;;;;;3.25;52.53;95422.59;5019977;28;20441;-60
2021/11/22 00:49:31;;;;;;;;;;;;;;;3.06;50.09;95423.38;5019517;28;19921;-59
2021/11/22 00:51:57;;;;;;;;;;;;;;;3.03;50.86;95428.94;5019159;28;19928;-62
2021/11/22 00:54:22;;;;;;;;;;;;;;;3.13;55.37;95432.38;5019736;28;19917;-58
2021/11/22 00:56:47;;;;;;;;;;;;;;;3.14;53.91;95441.13;5021596;28;19948;-59
2021/11/22 00:59:12;;;;;;;;;;;;;;;3.00;52.49;95435.25;5023590;28;20359;-59
2021/11/22 01:01:38;;;;;;;;;;;;;;;3.03;53.92;95440.25;5023073;28;19925;-61
2021/11/22 01:04:03;;;;;;;;;;;;;;;2.96;53.02;95446.22;5022775;28;19970;-59
2021/11/22 01:06:29;;;;;;;;;;;;;;;2.83;52.55;95446.44;5023230;28;19921;-59
2021/11/22 01:08:54;;;;;;;;;;;;;;;2.76;54.47;95454.03;5022835;28;19991;-59
2021/11/22 01:11:19;;;;;;;;;;;;;;;2.29;54.19;95463.22;5022756;28;19921;-59
2021/11/22 01:13:44;;;;;;;;;;;;;;;2.17;60.27;95454.56;4991997;28;19925;-57
2021/11/22 01:16:10;;;;;;;;;;;;;;;2.16;53.19;95458.16;5019390;28;19925;-59
2021/11/22 01:18:35;;;;;;;;;;;;;;;1.79;52.95;95462.06;5022583;28;20439;-59
2021/11/22 01:21:00;;;;;;;;;;;;;;;1.51;57.19;95469.56;5022281;28;19921;-58
2021/11/22 01:23:25;;;;;;;;;;;;;;;1.31;55.59;95485.13;5020778;28;20213;-59
2021/11/22 01:25:51;;;;;;;;;;;;;;;0.85;56.69;95489.56;5031771;28;19983;-59
2021/11/22 01:28:16;;;;;;;;;;;;;;;0.76;59.94;95498.19;5026733;28;19920;-60
2021/11/22 01:30:41;;;;;;;;;;;;;;;0.63;56.81;95491.28;5022697;28;20392;-58
2021/11/22 01:33:06;;;;;;;;;;;;;;;0.82;60.21;95500.31;5022556;28;19981;-61
2021/11/22 01:35:32;;;;;;;;;;;;;;;0.78;58.05;95498.91;5004687;28;19967;-61
2021/11/22 01:37:57;;;;;;;;;;;;;;;0.23;66.12;95508.25;5004407;28;20417;-58
2021/11/22 01:40:23;;;;;;;;;;;;;;;0.31;66.58;95502.44;5022409;28;19928;-59
2021/11/22 01:42:48;;;;;;;;;;;;;;;0.33;63.16;95501.38;5014801;28;19921;-60
2021/11/22 01:45:14;;;;;;;;;;;;;;;0.46;61.04;95500.44;5021938;28;19925;-60
2021/11/22 01:47:39;;;;;;;;;;;;;;;0.52;69.67;95504.38;5022392;28;20377;-58
2021/11/22 01:50:05;;;;;;;;;;;;;;;0.77;69.08;95505.91;5022105;28;20732;-60
2021/11/22 01:52:30;;;;;;;;;;;;;;;0.20;67.69;95506.69;5021774;28;19935;-59
2021/11/22 01:54:56;;;;;;;;;;;;;;;0.45;61.56;95502.19;5022558;28;20341;-60
2021/11/22 01:57:21;;;;;;;;;;;;;;;-0.66;63.43;95506.84;5022218;28;20200;-60
2021/11/22 01:59:46;;;;;;;;;;;;;;;-0.39;65.31;95510.19;5022745;28;20601;-58
2021/11/22 02:02:13;;;;;;;;;;;;;;;0.46;70.80;95505.66;5021220;28;19921;-59
2021/11/22 02:04:38;;;;;;;;;;;;;;;0.59;63.73;95513.41;5017975;28;20313;-61
2021/11/22 02:07:03;;;;;;;;;;;;;;;0.70;62.05;95507.34;5021621;28;19986;-59
2021/11/22 02:09:29;;;;;;;;;;;;;;;1.16;62.23;95504.69;5021424;28;19929;-64
2021/11/22 02:11:54;;;;;;;;;;;;;;;1.65;60.21;95509.59;5021310;28;19936;-59
2021/11/22 02:14:19;;;;;;;;;;;;;;;1.90;56.87;95503.19;5022249;28;19967;-59
2021/11/22 02:16:45;;;;;;;;;;;;;;;2.01;56.34;95515.44;5025603;28;20294;-60
2021/11/22 02:19:10;;;;;;;;;;;;;;;2.00;56.90;95517.22;5021673;28;19921;-59
2021/11/22 02:21:35;;;;;;;;;;;;;;;2.08;57.68;95518.41;5019236;28;20385;-59
2021/11/22 02:24:00;;;;;;;;;;;;;;;2.17;57.83;95516.81;5020049;28;19925;-58
2021/11/22 02:26:26;;;;;;;;;;;;;;;2.13;54.46;95511.81;5022082;28;19913;-58
2021/11/22 02:28:52;;;;;;;;;;;;;;;2.03;58.00;95510.03;5021584;28;19996;-59
2021/11/22 02:31:17;;;;;;;;;;;;;;;1.93;54.97;95517.84;5021776;28;20430;-59
2021/11/22 02:33:42;;;;;;;;;;;;;;;1.95;56.60;95518.56;5021855;28;20177;-58
2021/11/22 02:36:08;;;;;;;;;;;;;;;1.71;52.69;95522.25;5021654;28;20441;-58
2021/11/22 02:38:36;;;;;;;;;;;;;;;1.02;53.10;95530.22;5022569;28;19940;-61
2021/11/22 02:41:02;;;;;;;;;;;;;;;1.25;54.39;95532.81;5024565;28;20414;-60
2021/11/22 02:43:28;;;;;;;;;;;;;;;1.42;57.00;95546.38;5007898;28;19959;-59
2021/11/22 02:45:53;;;;;;;;;;;;;;;1.51;54.96;95540.41;5025019;28;20007;-58
2021/11/22 02:48:19;;;;;;;;;;;;;;;1.32;56.17;95544.50;5025248;28;19921;-60
2021/11/22 02:50:45;;;;;;;;;;;;;;;1.50;55.48;95549.25;5025372;28;20024;-59
2021/11/22 02:53:10;;;;;;;;;;;;;;;1.41;54.86;95550.81;5024740;28;20382;-58
2021/11/22 02:55:36;;;;;;;;;;;;;;;1.39;59.09;95549.25;5025235;28;19917;-59
2021/11/22 02:58:01;;;;;;;;;;;;;;;0.97;57.52;95550.72;5024932;28;19917;-60
2021/11/22 03:00:27;;;;;;;;;;;;;;;1.08;59.61;95553.34;5024800;28;19921;-59
2021/11/22 03:02:52;;;;;;;;;;;;;;;1.20;57.19;95562.00;5025367;28;19917;-58
2021/11/22 03:05:18;;;;;;;;;;;;;;;0.95;56.37;95563.94;5025446;28;19979;-58
2021/11/22 03:07:43;;;;;;;;;;;;;;;0.88;59.42;95562.75;5011817;28;20754;-57
2021/11/22 03:10:09;;;;;;;;;;;;;;;1.18;63.61;95563.09;5025115;28;19928;-59
2021/11/22 03:12:34;;;;;;;;;;;;;;;0.89;63.00;95568.84;5024480;28;20418;-59
2021/11/22 03:15:00;;;;;;;;;;;;;;;0.89;61.01;95567.03;5025766;28;19927;-59
2021/11/22 03:17:25;;;;;;;;;;;;;;;0.85;58.41;95562.97;5006582;28;19917;-59
2021/11/22 03:19:51;;;;;;;;;;;;;;;1.01;58.74;95561.78;5024384;28;19940;-61
2021/11/22 03:22:16;;;;;;;;;;;;;;;0.85;65.39;95571.69;5021487;28;20008;-59
2021/11/22 03:24:41;;;;;;;;;;;;;;;0.57;59.79;95576.41;5015494;28;20134;-60
2021/11/22 03:27:06;;;;;;;;;;;;;;;0.08;58.56;95578.31;5024775;28;19921;-60
2021/11/22 03:29:32;;;;;;;;;;;;;;;0.36;56.67;95578.88;5024548;28;19925;-60
2021/11/22 03:31:57;;;;;;;;;;;;;;;0.95;60.97;95579.69;5024575;28;19926;-60
2021/11/22 03:34:23;;;;;;;;;;;;;;;1.08;59.31;95584.81;5024657;28;19909;-59
2021/11/22 03:36:48;;;;;;;;;;;;;;;1.22;56.52;95588.13;5023999;28;19925;-59
2021/11/22 03:39:18;;;;;;;;;;;;;;;1.05;53.64;95595.53;5024845;28;19921;-59
2021/11/22 03:41:43;;;;;;;;;;;;;;;0.71;54.42;95596.34;5024311;28;20007;-59
2021/11/22 03:44:13;;;;;;;;;;;;;;;0.85;55.74;95595.28;5024387;28;20012;-61
2021/11/22 03:46:39;;;;;;;;;;;;;;;0.58;57.21;95600.84;5025088;28;20433;-58
2021/11/22 03:49:05;;;;;;;;;;;;;;;-0.47;62.24;95603.13;5024261;28;19921;-58
2021/11/22 03:51:30;;;;;;;;;;;;;;;-0.10;61.11;95609.28;5024246;28;20160;-60
2021/11/22 03:53:55;;;;;;;;;;;;;;;0.79;64.82;95608.84;5024124;28;20423;-58
2021/11/22 03:56:20;;;;;;;;;;;;;;;0.58;61.38;95606.09;5024040;28;20170;-58
2021/11/22 03:58:46;;;;;;;;;;;;;;;1.18;61.11;95605.91;5024501;28;20123;-58
2021/11/22 04:01:11;;;;;;;;;;;;;;;1.60;55.87;95610.53;5023786;28;20432;-62
2021/11/22 04:03:36;;;;;;;;;;;;;;;1.72;58.27;95613.16;5024155;28;19964;-60
2021/11/22 04:06:02;;;;;;;;;;;;;;;1.05;61.90;95623.53;5019653;28;20007;-58
2021/11/22 04:08:27;;;;;;;;;;;;;;;0.96;59.71;95625.09;5014347;28;19932;-60
2021/11/22 04:10:52;;;;;;;;;;;;;;;0.96;61.26;95630.34;5024047;28;19921;-58
2021/11/22 04:13:18;;;;;;;;;;;;;;;1.55;56.55;95625.84;5023724;28;20018;-58
2021/11/22 04:15:43;;;;;;;;;;;;;;;1.78;59.23;95628.44;5023900;28;19959;-60
2021/11/22 04:18:08;;;;;;;;;;;;;;;2.05;57.93;95635.03;5023501;28;19964;-59
2021/11/22 04:20:34;;;;;;;;;;;;;;;1.36;55.08;95645.59;5023376;28;20376;-60
2021/11/22 04:22:59;;;;;;;;;;;;;;;0.91;57.21;95648.19;5014487;28;19929;-61
2021/11/22 04:25:24;;;;;;;;;;;;;;;0.54;62.40;95652.63;5020079;28;19925;-57
2021/11/22 04:27:50;;;;;;;;;;;;;;;1.34;60.47;95647.53;5023889;28;19921;-60
2021/11/22 04:30:15;;;;;;;;;;;;;;;1.79;57.91;95651.09;5023564;28;20000;-60
2021/11/22 04:32:40;;;;;;;;;;;;;;;1.92;57.41;95658.81;5027193;28;20426;-58
2021/11/22 04:35:06;;;;;;;;;;;;;;;1.98;59.56;95660.13;5027935;28;20006;-58
2021/11/22 04:37:32;;;;;;;;;;;;;;;1.30;55.25;95655.75;5009817;28;19917;-61
2021/11/22 04:39:57;;;;;;;;;;;;;;;1.59;57.26;95660.53;5030163;28;20136;-58
2021/11/22 04:42:22;;;;;;;;;;;;;;;1.67;57.29;95667.81;5027693;28;19913;-58
2021/11/22 04:44:48;;;;;;;;;;;;;;;1.27;54.69;95661.22;5027257;28;19929;-61
2021/11/22 04:47:13;;;;;;;;;;;;;;;1.31;55.20;95671.38;5027758;28;19921;-60
2021/11/22 04:49:39;;;;;;;;;;;;;;;0.91;58.10;95677.88;5027122;28;19931;-59
2021/11/22 04:52:06;;;;;;;;;;;;;;;1.20;56.53;95676.59;5027380;28;20513;-60
2021/11/22 04:54:32;;;;;;;;;;;;;;;1.19;54.81;95675.75;5024493;28;19960;-58
2021/11/22 04:56:57;;;;;;;;;;;;;;;1.42;57.43;95683.66;5026191;28;20476;-61
2021/11/22 04:59:22;;;;;;;;;;;;;;;1.29;57.57;95682.94;5027457;28;20428;-59
2021/11/22 05:01:47;;;;;;;;;;;;;;;1.39;57.10;95685.69;5026113;28;19921;-59
2021/11/22 05:04:13;;;;;;;;;;;;;;;1.40;56.17;95698.66;5026624;28;20347;-58
2021/11/22 05:06:38;;;;;;;;;;;;;;;1.50;57.21;95702.25;5027128;28;20068;-60
2021/11/22 05:09:03;;;;;;;;;;;;;;;1.53;55.12;95701.22;5008730;28;19935;-58
2021/11/22 05:11:28;;;;;;;;;;;;;;;1.47;56.55;95709.53;5027363;28;19925;-58
2021/11/22 05:13:54;;;;;;;;;;;;;;;1.64;57.70;95710.03;5026497;28;19917;-59
2021/11/22 05:16:19;;;;;;;;;;;;;;;1.68;57.87;95712.31;5026599;28;20301;-60
2021/11/22 05:18:44;;;;;;;;;;;;;;;1.59;58.62;95716.50;5026905;28;20118;-60
2021/11/22 05:21:10;;;;;;;;;;;;;;;1.46;54.46;95719.19;5026621;28;19921;-60
2021/11/22 05:23:35;;;;;;;;;;;;;;;1.85;59.09;95718.88;5015126;28;19972;-61
2021/11/22 05:26:00;;;;;;;;;;;;;;;2.11;54.96;95736.97;5026703;28;19927;-59
2021/11/22 05:28:27;;;;;;;;;;;;;;;2.28;55.63;95729.53;5026332;28;19921;-58
2021/11/22 05:30:52;;;;;;;;;;;;;;;2.34;55.49;95738.72;5026861;28;19927;-61
2021/11/22 05:33:17;;;;;;;;;;;;;;;2.49;52.10;95742.75;5026235;28;20394;-59
2021/11/22 05:35:43;;;;;;;;;;;;;;;2.75;55.76;95747.69;5026504;28;19991;-60
2021/11/22 05:38:08;;;;;;;;;;;;;;;1.90;60.63;95742.13;5025698;28;19921;-60
2021/11/22 05:40:33;;;;;;;;;;;;;;;1.91;60.92;95745.59;5026324;28;19944;-58
2021/11/22 05:42:58;;;;;;;;;;;;;;;1.85;57.00;95745.13;5026309;28;19921;-58
2021/11/22 05:45:24;;;;;;;;;;;;;;;2.27;57.21;95755.00;5026286;28;19929;-59
2021/11/22 05:47:49;;;;;;;;;;;;;;;2.26;57.90;95758.59;5025918;28;19925;-61
2021/11/22 05:50:15;;;;;;;;;;;;;;;2.49;58.65;95755.06;5026727;28;20053;-60
2021/11/22 05:52:43;;;;;;;;;;;;;;;2.50;56.25;95767.25;5025926;28;19928;-58
2021/11/22 05:55:16;;;;;;;;;;;;;;;2.52;53.11;95767.97;5026192;28;19960;-60
2021/11/22 05:57:42;;;;;;;;;;;;;;;2.72;52.50;95773.41;5025570;28;20375;-60
2021/11/22 06:00:08;;;;;;;;;;;;;;;2.81;56.35;95771.78;5025981;28;20292;-60
2021/11/22 06:02:33;;;;;;;;;;;;;;;2.85;54.95;95779.31;5026317;28;19970;-59
2021/11/22 06:04:59;;;;;;;;;;;;;;;2.82;56.04;95782.19;5025948;28;19987;-59
2021/11/22 06:07:24;;;;;;;;;;;;;;;2.94;53.28;95776.88;5012481;28;19942;-59
2021/11/22 06:09:49;;;;;;;;;;;;;;;3.04;55.58;95785.69;5025910;28;20416;-59
2021/11/22 06:12:14;;;;;;;;;;;;;;;2.82;51.23;95792.72;5025579;28;19981;-59
2021/11/22 06:14:40;;;;;;;;;;;;;;;2.55;52.17;95788.72;5025998;28;20012;-59
2021/11/22 06:17:05;;;;;;;;;;;;;;;2.08;54.30;95791.56;5025351;28;20294;-60
2021/11/22 06:19:30;;;;;;;;;;;;;;;2.34;55.74;95797.38;5025986;28;19913;-59
2021/11/22 06:21:55;;;;;;;;;;;;;;;2.57;57.68;95794.72;5024786;28;20008;-58
2021/11/22 06:24:21;;;;;;;;;;;;;;;2.37;54.14;95793.66;5013427;28;19992;-59
2021/11/22 06:26:47;;;;;;;;;;;;;;;2.68;56.91;95793.00;5025867;28;19924;-58
2021/11/22 06:29:17;;;;;;;;;;;;;;;2.63;55.57;95799.44;5025580;28;20442;-58
2021/11/22 06:31:42;;;;;;;;;;;;;;;2.75;55.63;95808.16;5025372;28;19925;-58
2021/11/22 06:34:07;;;;;;;;;;;;;;;2.73;53.52;95812.69;5025272;28;19928;-59
2021/11/22 06:36:32;;;;;;;;;;;;;;;2.84;55.06;95819.72;5024605;28;19917;-59
2021/11/22 06:38:58;;;;;;;;;;;;;;;2.99;55.60;95824.72;5025345;28;19931;-57
2021/11/22 06:41:23;;;;;;;;;;;;;;;2.96;52.48;95819.69;5024552;28;20386;-61
2021/11/22 06:43:48;;;;;;;;;;;;;;;2.67;53.77;95818.47;5020296;28;19917;-59
2021/11/22 06:46:13;;;;;;;;;;;;;;;2.69;54.15;95826.22;5024946;28;19924;-59
2021/11/22 06:48:39;;;;;;;;;;;;;;;2.68;59.21;95835.91;5024447;28;19936;-59
2021/11/22 06:51:04;;;;;;;;;;;;;;;2.51;52.94;95827.56;5024389;28;19956;-59
2021/11/22 06:53:29;;;;;;;;;;;;;;;2.50;56.78;95833.78;5023737;28;19933;-58
2021/11/22 06:55:54;;;;;;;;;;;;;;;2.55;56.71;95836.03;5024245;28;20328;-58
2021/11/22 06:58:20;;;;;;;;;;;;;;;2.47;58.23;95841.06;5024337;28;19957;-58
2021/11/22 07:00:46;;;;;;;;;;;;;;;2.58;55.67;95845.50;5024776;28;19921;-59
2021/11/22 07:03:11;;;;;;;;;;;;;;;2.68;54.98;95853.47;5019994;28;19964;-61
2021/11/22 07:05:36;;;;;;;;;;;;;;;2.83;60.29;95856.66;5016085;28;20354;-59
2021/11/22 07:08:06;;;;;;;;;;;;;;;2.79;56.60;95866.59;5024057;28;19980;-59
2021/11/22 07:10:32;;;;;;;;;;;;;;;2.93;54.55;95868.13;5024764;28;19929;-58
2021/11/22 07:12:57;;;;;;;;;;;;;;;2.93;52.39;95868.13;5024163;28;19925;-60
2021/11/22 07:15:22;;;;;;;;;;;;;;;2.93;56.38;95875.16;5024471;28;19921;-60
2021/11/22 07:17:48;;;;;;;;;;;;;;;2.85;53.48;95879.25;5024308;28;20460;-58
2021/11/22 07:20:13;;;;;;;;;;;;;;;3.18;57.29;95879.28;5023435;28;20229;-59
2021/11/22 07:22:39;;;;;;;;;;;;;;;3.12;53.94;95879.78;5022249;28;20412;-61
2021/11/22 07:25:04;;;;;;;;;;;;;;;2.93;53.13;95883.91;5023723;28;19925;-59
2021/11/22 07:27:29;;;;;;;;;;;;;;;2.76;50.90;95875.56;5024162;28;20373;-60
2021/11/22 07:29:55;;;;;;;;;;;;;;;2.80;55.32;95886.69;5019529;28;19925;-61
2021/11/22 07:32:20;;;;;;;;;;;;;;;2.63;49.36;95895.91;5023349;28;19983;-60
2021/11/22 07:34:45;;;;;;;;;;;;;;;2.53;55.08;95903.69;5022238;28;19991;-57
2021/11/22 07:37:11;;;;;;;;;;;;;;;2.53;56.66;95901.06;5006112;28;19967;-60
2021/11/22 07:39:36;;;;;;;;;;;;;;;2.21;52.81;95907.84;5023568;28;19960;-61
2021/11/22 07:42:01;;;;;;;;;;;;;;;2.68;53.80;95916.59;5023717;28;19928;-57
2021/11/22 07:44:27;;;;;;;;;;;;;;;3.00;56.70;95921.88;5005604;28;20409;-59
2021/11/22 07:46:52;;;;;;;;;;;;;;;3.08;51.53;95921.28;5023623;28;20643;-60
2021/11/22 07:49:18;;;;;;;;;;;;;;;3.30;48.99;95935.34;5022556;28;19975;-59
2021/11/22 07:51:43;;;;;;;;;;;;;;;3.42;51.65;95930.88;5024237;28;20430;-59
2021/11/22 07:54:08;;;;;;;;;;;;;;;3.21;48.35;95929.03;5023042;28;19925;-57
2021/11/22 07:56:34;;;;;;;;;;;;;;;3.49;52.17;95939.13;5023670;28;20126;-58
2021/11/22 07:58:59;;;;;;;;;;;;;;;3.28;50.44;95940.75;5024229;28;20291;-59
2021/11/22 08:01:25;;;;;;;;;;;;;;;2.81;51.64;95948.84;5023046;28;19921;-58
2021/11/22 08:03:50;;;;;;;;;;;;;;;3.13;51.83;95949.88;5023307;28;20363;-59
2021/11/22 08:06:16;;;;;;;;;;;;;;;3.47;52.37;95952.41;5022740;28;19917;-58
2021/11/22 08:08:41;;;;;;;;;;;;;;;3.63;49.46;95951.16;5036129;28;19925;-59
2021/11/22 08:11:28;;;;;;;;;;;;;;;3.62;51.38;95954.75;5023761;28;19925;-57
2021/11/22 08:13:53;;;;;;;;;;;;;;;3.84;53.39;95960.91;5023166;28;19925;-58
2021/11/22 08:16:18;;;;;;;;;;;;;;;3.52;52.81;95970.47;5022851;28;19936;-60
2021/11/22 08:18:43;;;;;;;;;;;;;;;3.61;49.17;95976.81;5023131;28;19921;-59
2021/11/22 08:21:09;;;;;;;;;;;;;;;3.64;50.30;95984.47;5022766;28;19921;-57
2021/11/22 08:23:34;;;;;;;;;;;;;;;3.65;56.02;95991.38;5021230;28;19921;-59
2021/11/22 08:25:59;;;;;;;;;;;;;;;3.92;51.01;95982.19;5023514;28;19925;-60
2021/11/22 08:28:24;;;;;;;;;;;;;;;3.16;52.38;95995.19;5022802;28;19940;-58
2021/11/22 08:30:50;;;;;;;;;;;;;;;3.60;52.44;96004.09;5023021;28;20024;-59
2021/11/22 08:33:17;;;;;;;;;;;;;;;3.74;50.99;96001.16;5023345;28;19925;-59
2021/11/22 08:35:42;;;;;;;;;;;;;;;3.62;50.23;95997.75;5021781;28;20285;-59
2021/11/22 08:38:08;;;;;;;;;;;;;;;3.99;51.50;96004.44;5023023;28;20020;-59
2021/11/22 08:40:36;;;;;;;;;;;;;;;4.12;48.98;96001.59;5019392;28;21054;-59
2021/11/22 08:43:01;;;;;;;;;;;;;;;4.24;49.91;96012.91;5021328;28;19925;-59
2021/11/22 08:45:26;;;;;;;;;;;;;;;4.22;50.11;96019.28;5031875;28;20470;-58
2021/11/22 08:47:53;;;;;;;;;;;;;;;4.29;49.35;96021.25;5001468;28;19921;-60
2021/11/22 08:50:19;;;;;;;;;;;;;;;3.67;46.85;96019.25;5018604;28;20140;-59
2021/11/22 08:52:44;;;;;;;;;;;;;;;3.86;51.35;96019.56;5018746;28;20205;-60
2021/11/22 08:55:09;;;;;;;;;;;;;;;4.21;48.98;96036.88;5019449;28;19928;-58
2021/11/22 08:57:35;;;;;;;;;;;;;;;4.14;46.51;96026.03;5018323;28;19929;-60
2021/11/22 09:00:01;;;;;;;;;;;;;;;4.41;46.50;96024.69;5017759;28;19921;-59
2021/11/22 09:02:26;;;;;;;;;;;;;;;4.45;46.54;96028.75;5019094;28;19921;-58
2021/11/22 09:04:51;;;;;;;;;;;;;;;4.62;48.03;96030.94;5017891;28;20040;-59
2021/11/22 09:07:17;;;;;;;;;;;;;;;4.50;51.00;96035.41;5017181;28;19935;-58
2021/11/22 09:09:42;;;;;;;;;;;;;;;3.76;47.91;96045.81;5017008;28;20394;-61
2021/11/22 09:12:07;;;;;;;;;;;;;;;4.35;49.55;96048.09;5010512;28;20527;-58
2021/11/22 09:14:33;;;;;;;;;;;;;;;4.53;46.13;96054.44;5019238;28;19952;-59
2021/11/22 09:16:58;;;;;;;;;;;;;;;4.68;48.47;96052.34;5019493;28;19925;-64
2021/11/22 09:19:23;;;;;;;;;;;;;;;4.99;50.80;96058.59;5022405;28;19925;-59
2021/11/22 09:21:49;;;;;;;;;;;;;;;5.40;47.33;96055.97;5021902;28;19924;-61
2021/11/22 09:24:14;;;;;;;;;;;;;;;5.60;50.02;96064.81;5014170;28;20007;-60
2021/11/22 09:26:39;;;;;;;;;;;;;;;4.78;43.16;96062.09;5021877;28;20310;-57
2021/11/22 09:29:05;;;;;;;;;;;;;;;4.76;53.31;96074.59;5018801;28;20305;-59
2021/11/22 09:31:30;;;;;;;;;;;;;;;5.29;46.57;96070.97;5024796;28;19928;-60
2021/11/22 09:33:55;;;;;;;;;;;;;;;5.19;44.60;96078.88;5026415;28;19947;-59
2021/11/22 09:36:21;;;;;;;;;;;;;;;5.38;48.58;96076.41;5021989;28;20437;-59
2021/11/22 09:38:46;;;;;;;;;;;;;;;5.50;48.56;96087.72;5021732;28;21040;-59
2021/11/22 09:41:12;;;;;;;;;;;;;;;5.14;42.22;96088.97;5021019;28;19996;-58
2021/11/22 09:43:37;;;;;;;;;;;;;;;5.14;44.74;96098.69;5021760;28;20403;-60
2021/11/22 09:46:02;;;;;;;;;;;;;;;5.41;47.68;96094.66;5020097;28;19928;-59
2021/11/22 09:48:28;;;;;;;;;;;;;;;5.59;44.55;96092.19;5020807;28;20358;-58
2021/11/22 09:50:53;;;;;;;;;;;;;;;5.64;42.24;96089.97;5021325;28;19925;-60
2021/11/22 09:53:18;;;;;;;;;;;;;;;5.72;40.78;96095.41;5020939;28;19929;-59
2021/11/22 09:55:43;;;;;;;;;;;;;;;5.74;41.13;96092.63;5021105;28;20365;-60
2021/11/22 09:58:09;;;;;;;;;;;;;;;5.86;43.57;96096.84;5020298;28;19925;-58
2021/11/22 10:00:35;;;;;;;;;;;;;;;5.70;46.36;96099.16;5020667;28;19932;-58
2021/11/22 10:03:00;;;;;;;;;;;;;;;5.40;45.04;96104.38;5021360;28;19932;-58
2021/11/22 10:05:30;;;;;;;;;;;;;;;5.61;42.22;96106.09;5018386;28;20035;-58
2021/11/22 10:07:58;;;;;;;;;;;;;;;5.71;44.02;96103.47;5019351;28;20008;-59
2021/11/22 10:10:24;;;;;;;;;;;;;;;5.73;42.17;96105.03;5019275;28;20445;-59
2021/11/22 10:12:50;;;;;;;;;;;;;;;5.88;41.61;96111.75;5020890;28;20164;-57
2021/11/22 10:15:15;;;;;;;;;;;;;;;5.98;42.37;96102.84;5021388;28;20474;-58
2021/11/22 10:17:43;;;;;;;;;;;;;;;5.63;53.09;96111.25;5033703;28;20005;-60
2021/11/22 10:20:09;;;;;;;;;;;;;;;6.12;44.28;96106.03;5020846;28;20072;-59
2021/11/22 10:22:46;;;;;;;;;;;;;;;6.12;44.24;96093.69;5015200;28;20008;-59
2021/11/22 10:25:31;;;;;;;;;;;;;;;6.49;42.43;96100.13;5002506;28;19929;-60
2021/11/22 10:28:00;;;;;;;;;;;;;;;6.60;43.08;96111.53;5001868;28;19917;-59
2021/11/22 10:30:26;;;;;;;;;;;;;;;6.49;39.38;96109.84;5021055;28;19917;-58
2021/11/22 10:32:52;;;;;;;;;;;;;;;6.53;43.51;96115.72;5002793;28;19975;-60
2021/11/22 10:35:18;;;;;;;;;;;;;;;6.55;39.58;96119.03;5019698;28;19921;-59
2021/11/22 10:37:53;;;;;;;;;;;;;;;6.34;40.68;96106.78;5019400;28;20345;-58
2021/11/22 10:40:18;;;;;;;;;;;;;;;6.44;41.74;96114.69;5020051;28;20037;-57
2021/11/22 10:42:44;;;;;;;;;;;;;;;6.33;39.90;96121.78;5019636;28;19921;-60
2021/11/22 10:45:21;;;;;;;;;;;;;;;6.37;41.23;96122.38;5020715;28;19925;-57
2021/11/22 10:47:53;;;;;;;;;;;;;;;6.69;43.35;96131.84;5019544;28;20606;-57
2021/11/22 10:50:24;;;;;;;;;;;;;;;6.92;42.74;96130.69;5013633;28;19925;-59
2021/11/22 10:52:49;;;;;;;;;;;;;;;6.79;42.71;96125.69;5016020;28;19936;-58
2021/11/22 10:55:14;;;;;;;;;;;;;;;6.68;41.50;96122.25;5004086;28;19917;-57
2021/11/22 10:57:44;;;;;;;;;;;;;;;6.67;48.50;96130.31;5019308;28;20067;-57
2021/11/22 11:00:23;;;;;;;;;;;;;;;6.71;41.48;96129.91;5020042;28;20298;-58
2021/11/22 11:02:49;;;;;;;;;;;;;;;7.13;40.93;96120.75;5011000;28;20294;-61
2021/11/22 11:05:27;;;;;;;;;;;;;;;6.49;38.60;96115.97;5020059;28;19936;-60
2021/11/22 11:08:01;;;;;;;;;;;;;;;6.61;37.98;96126.44;5022551;28;19999;-59
2021/11/22 11:10:26;;;;;;;;;;;;;;;5.73;42.41;96128.81;5019392;28;20240;-58
2021/11/22 11:12:54;;;;;;;;;;;;;;;6.49;43.48;96126.56;5018929;28;19936;-59
2021/11/22 11:15:20;;;;;;;;;;;;;;;6.61;48.59;96134.38;5033841;28;19926;-60
2021/11/22 11:17:45;;;;;;;;;;;;;;;6.52;40.77;96129.91;5004690;28;20341;-58
2021/11/22 11:20:11;;;;;;;;;;;;;;;6.81;39.39;96129.91;5019409;28;20370;-60
2021/11/22 11:22:37;;;;;;;;;;;;;;;6.46;38.91;96129.44;5013739;28;20020;-59
2021/11/22 11:25:05;;;;;;;;;;;;;;;6.57;40.54;96132.97;4999611;28;19997;-58
2021/11/22 11:27:31;;;;;;;;;;;;;;;6.45;42.36;96141.00;5019538;28;19925;-60
2021/11/22 11:29:56;;;;;;;;;;;;;;;6.52;43.63;96138.66;5019988;28;20341;-59
2021/11/22 11:32:22;;;;;;;;;;;;;;;6.74;40.95;96152.59;5018449;28;20004;-57
2021/11/22 11:34:48;;;;;;;;;;;;;;;6.44;43.83;96152.56;5019727;28;20351;-58
2021/11/22 11:37:20;;;;;;;;;;;;;;;6.69;39.99;96153.00;5001007;28;20078;-59
2021/11/22 11:39:48;;;;;;;;;;;;;;;6.86;41.12;96153.28;5019240;28;19969;-59
2021/11/22 11:42:46;;;;;;;;;;;;;;;6.45;42.99;96159.53;5019965;28;19997;-59
2021/11/22 11:45:14;;;;;;;;;;;;;;;6.89;38.07;96158.28;4975620;28;20021;-60
2021/11/22 11:47:39;;;;;;;;;;;;;;;6.78;40.33;96159.28;5019855;28;19986;-58
2021/11/22 11:50:20;;;;;;;;;;;;;;;6.72;43.35;96162.47;5019812;28;19921;-58
2021/11/22 11:52:49;;;;;;;;;;;;;;;6.95;38.20;96162.19;5018768;28;20452;-59
2021/11/22 11:55:15;;;;;;;;;;;;;;;6.92;38.07;96171.25;5034136;28;19925;-61
2021/11/22 11:57:40;;;;;;;;;;;;;;;6.93;39.16;96172.91;5019730;28;20394;-58
2021/11/22 12:00:20;;;;;;;;;;;;;;;7.37;38.97;96167.09;5001349;28;19921;-59
2021/11/22 12:02:45;;;;;;;;;;;;;;;12.00;32.27;96160.94;4994178;28;19963;-60
2021/11/22 12:05:11;;;;;;;;;;;;;;;14.60;27.31;96145.81;5000895;28;20002;-58
2021/11/22 12:07:37;;;;;;;;;;;;;;;16.23;23.49;96153.16;5037506;28;20436;-59
2021/11/22 12:10:11;;;;;;;;;;;;;;;18.37;20.90;96170.50;5019660;28;20020;-57
2021/11/22 12:12:38;;;;;;;;;;;;;;;20.25;18.15;96175.44;5019015;28;20001;-56
2021/11/22 12:15:03;;;;;;;;;;;;;;;21.02;19.13;96165.06;5014662;28;20165;-55
2021/11/22 12:17:34;;;;;;;;;;;;;;;22.88;18.47;96169.34;5032352;28;19966;-56
2021/11/22 12:20:06;;;;;;;;;;;;;;;23.41;14.69;96161.81;5019113;28;20003;-57
2021/11/22 12:22:38;;;;;;;;;;;;;;;24.58;15.50;96158.47;5007622;28;20016;-57
2021/11/22 12:25:04;;;;;;;;;;;;;;;24.60;14.60;96160.94;5013014;28;20127;-57
2021/11/22 12:27:29;;;;;;;;;;;;;;;26.30;12.95;96157.03;5001469;28;20019;-57
2021/11/22 12:29:55;;;;;;;;;;;;;;;26.81;11.79;96158.28;5018967;28;20385;-60
2021/11/22 12:32:24;;;;;;;;;;;;;;;27.58;11.93;96153.94;5000464;28;19929;-58
2021/11/22 12:34:54;;;;;;;;;;;;;;;28.21;11.61;96152.69;5019228;28;20585;-57
2021/11/22 12:37:23;;;;;;;;;;;;;;;28.29;10.70;96148.56;5014992;28;20530;-59
2021/11/22 12:39:48;;;;;;;;;;;;;;;28.78;10.06;96151.59;5018712;28;19967;-59
2021/11/22 12:42:14;;;;;;;;;;;;;;;30.20;10.62;96150.91;5017805;28;20012;-57
2021/11/22 12:44:40;;;;;;;;;;;;;;;30.16;8.88;96158.09;5011566;28;20234;-58
2021/11/22 12:47:06;;;;;;;;;;;;;;;30.88;9.44;96166.50;5033090;28;19921;-60
2021/11/22 12:49:41;;;;;;;;;;;;;;;30.63;8.28;96156.66;5000047;28;20417;-60